Time;durP1;ratioP1;P1;durP2;ratioP2;P2;SDS_P1;SDS_P2;PMS_P1;PMS_P2;Temp;Humidity;BMP_temperature;BMP_pressure;BME280_temperature;BME280_humidity;BME280_pressure;Samples;Min_cycle;Max_cycle;Signal;HPM_P1;HPM_P2
2021/05/06 00:33:30;;;;;;;16.05;2.50;;;;;;;6.52;58.63;98860.84;5062327;28;20049;-78
2021/05/06 00:35:57;;;;;;;6.25;2.10;;;;;;;6.73;57.84;98852.09;5062231;28;20181;-77
2021/05/06 00:38:29;;;;;;;8.57;2.03;;;;;;;6.37;59.41;98847.97;5061189;28;20052;-77
2021/05/06 00:43:57;;;;;;;8.00;2.40;;;;;;;6.34;59.86;98850.53;5061774;28;20060;-78
2021/05/06 00:54:03;;;;;;;9.73;2.13;;;;;;;6.22;60.75;98839.38;5061204;28;20048;-77
2021/05/06 01:05:48;;;;;;;6.18;2.35;;;;;;;5.97;60.91;98817.84;5056163;28;20056;-77
2021/05/06 01:08:24;;;;;;;6.88;2.67;;;;;;;5.93;61.46;98821.31;5061911;28;20077;-77
2021/05/06 01:13:37;;;;;;;9.02;2.38;;;;;;;6.13;60.90;98811.75;5038533;28;20531;-78
2021/05/06 01:16:04;;;;;;;16.38;3.35;;;;;;;5.65;62.25;98811.00;5041008;28;20103;-78
2021/05/06 01:18:31;;;;;;;13.63;3.65;;;;;;;5.77;61.75;98804.91;5020712;28;20531;-78
2021/05/06 01:21:00;;;;;;;7.68;2.65;;;;;;;5.92;61.85;98806.63;5044503;28;20060;-77
2021/05/06 01:23:29;;;;;;;12.45;2.97;;;;;;;5.97;61.53;98803.16;5023416;28;20042;-77
2021/05/06 01:26:06;;;;;;;13.77;3.15;;;;;;;5.82;61.82;98797.97;5040497;28;20053;-77
2021/05/06 01:28:37;;;;;;;11.77;2.95;;;;;;;5.99;61.47;98800.56;5021416;28;20221;-77
2021/05/06 01:31:18;;;;;;;6.47;3.17;;;;;;;6.15;60.75;98797.03;5003811;28;20041;-76
2021/05/06 01:34:00;;;;;;;6.72;2.50;;;;;;;5.78;61.25;98804.03;5004430;28;20041;-77
2021/05/06 01:36:32;;;;;;;11.68;3.03;;;;;;;5.68;62.30;98808.38;5008910;28;20057;-78
2021/05/06 01:42:57;;;;;;;17.25;3.80;;;;;;;5.35;64.07;98797.22;4986230;28;20520;-78
2021/05/06 01:50:12;;;;;;;10.13;3.60;;;;;;;5.87;62.66;98785.91;5016429;28;20049;-79
2021/05/06 02:00:39;;;;;;;16.63;3.65;;;;;;;6.07;61.58;98776.31;5022710;28;20554;-78
2021/05/06 02:03:06;;;;;;;10.18;3.30;;;;;;;6.14;62.10;98787.50;5009097;28;20500;-78
2021/05/06 02:05:32;;;;;;;10.13;3.15;;;;;;;6.05;62.11;98779.78;4990587;28;20053;-78
2021/05/06 02:07:59;;;;;;;13.73;3.42;;;;;;;5.86;62.83;98778.97;4990031;28;20508;-78
2021/05/06 02:10:27;;;;;;;9.05;3.13;;;;;;;5.82;62.96;98766.88;4989597;28;20046;-78
2021/05/06 02:12:54;;;;;;;11.45;3.28;;;;;;;5.78;62.99;98760.00;4997837;28;20042;-78
2021/05/06 02:17:48;;;;;;;9.45;2.80;;;;;;;6.11;61.96;98765.06;5004370;28;20396;-78
2021/05/06 02:20:16;;;;;;;12.25;3.42;;;;;;;6.31;61.02;98758.94;5005365;28;20121;-78
2021/05/06 02:22:50;;;;;;;8.07;3.25;;;;;;;6.19;61.07;98761.59;5006377;28;20061;-78
2021/05/06 02:25:18;;;;;;;9.57;3.58;;;;;;;6.32;60.94;98764.13;5023471;28;20129;-78
2021/05/06 02:27:45;;;;;;;14.68;3.80;;;;;;;5.94;61.69;98750.47;5022901;28;20164;-78
2021/05/06 02:30:12;;;;;;;11.32;3.50;;;;;;;6.07;61.06;98750.41;4990207;28;20050;-78
2021/05/06 02:32:38;;;;;;;5.93;2.83;;;;;;;6.18;60.75;98750.34;5003724;28;20144;-79
2021/05/06 02:35:06;;;;;;;5.63;2.72;;;;;;;6.28;60.35;98748.56;5009318;28;20045;-77
2021/05/06 02:37:33;;;;;;;8.85;3.80;;;;;;;6.25;60.44;98751.16;5014175;28;20055;-78
2021/05/06 02:39:59;;;;;;;10.98;3.78;;;;;;;6.24;60.64;98750.31;5069403;28;20048;-78
2021/05/06 02:42:26;;;;;;;10.82;4.10;;;;;;;5.88;61.39;98747.88;5050220;28;20040;-78
2021/05/06 02:44:53;;;;;;;8.93;3.28;;;;;;;5.76;61.63;98746.16;5069599;28;20044;-77
2021/05/06 02:47:21;;;;;;;9.40;4.10;;;;;;;5.88;61.72;98746.16;5069323;28;20052;-78
2021/05/06 02:49:51;;;;;;;10.27;4.05;;;;;;;5.99;61.26;98738.34;5081411;28;20395;-78
2021/05/06 02:54:52;;;;;;;11.73;4.25;;;;;;;6.13;60.84;98740.00;5073143;28;20048;-77
2021/05/06 02:57:27;;;;;;;8.75;4.03;;;;;;;5.66;62.08;98740.16;5064475;28;20040;-78
2021/05/06 03:02:51;;;;;;;13.20;3.67;;;;;;;6.03;61.73;98735.72;5066575;28;20478;-79
2021/05/06 03:05:19;;;;;;;10.25;3.92;;;;;;;5.88;61.84;98740.97;5068326;28;20064;-77
2021/05/06 03:07:54;;;;;;;13.18;3.70;;;;;;;5.69;62.07;98734.09;5063104;28;20048;-78
2021/05/06 03:24:16;;;;;;;8.15;3.67;;;;;;;4.86;67.25;98745.47;5064848;28;20097;-78
2021/05/06 03:26:44;;;;;;;8.40;4.38;;;;;;;5.32;66.83;98750.63;5065114;28;20107;-77
2021/05/06 03:29:23;;;;;;;9.52;4.30;;;;;;;5.44;67.43;98748.84;5066895;28;20062;-77
2021/05/06 03:32:23;;;;;;;14.63;4.93;;;;;;;5.53;66.74;98747.97;5058231;28;20431;-78
2021/05/06 03:35:04;;;;;;;13.93;6.32;;;;;;;5.56;67.65;98747.97;5062477;28;20325;-77
2021/05/06 04:18:34;;;;;;;8.05;6.50;;;;;;;6.43;65.77;98705.22;5064241;28;20364;-78
2021/05/06 04:37:31;;;;;;;7.60;6.32;;;;;;;6.76;64.92;98679.91;5062641;28;20052;-77
2021/05/06 04:40:09;;;;;;;6.65;5.97;;;;;;;6.38;65.76;98683.63;5066628;28;20044;-78
2021/05/06 04:56:03;;;;;;;5.88;5.28;;;;;;;5.86;66.24;98667.50;5068951;28;19951;-77
2021/05/06 05:06:21;;;;;;;6.15;4.85;;;;;;;6.01;66.19;98674.38;5068271;28;20055;-77
2021/05/06 05:09:31;;;;;;;6.13;5.53;;;;;;;6.42;65.41;98677.59;5065248;28;20052;-77
2021/05/06 05:14:31;;;;;;;5.55;4.82;;;;;;;7.06;63.81;98670.97;5067003;28;20064;-78
2021/05/06 05:20:02;;;;;;;3.58;3.08;;;;;;;8.75;57.14;98667.91;5065569;28;20060;-78
2021/05/06 05:25:20;;;;;;;8.38;2.55;;;;;;;9.59;53.75;98669.84;5066978;28;20060;-78
2021/05/06 05:27:48;;;;;;;4.43;2.08;;;;;;;9.67;53.20;98669.69;5069646;28;20054;-78
2021/05/06 05:30:16;;;;;;;4.78;2.25;;;;;;;9.66;53.12;98663.59;5065246;28;20094;-78
2021/05/06 05:33:02;;;;;;;2.55;1.55;;;;;;;10.72;50.44;98666.47;5067236;28;20527;-79
2021/05/06 05:35:54;;;;;;;1.83;1.40;;;;;;;10.95;48.63;98671.13;5048887;28;20075;-78
2021/05/06 05:56:54;;;;;;;3.35;0.90;;;;;;;13.41;41.70;98669.78;5064281;28;20044;-77
2021/05/06 05:59:21;;;;;;;3.55;1.30;;;;;;;12.70;43.11;98671.34;5044896;28;20131;-78
2021/05/06 06:01:49;;;;;;;3.22;1.48;;;;;;;12.58;43.49;98662.94;5060454;28;20572;-78
2021/05/06 06:04:16;;;;;;;1.83;1.23;;;;;;;12.84;42.71;98664.75;5064041;28;20051;-77
2021/05/06 06:06:43;;;;;;;2.15;1.30;;;;;;;12.15;43.85;98671.28;5064803;28;20075;-78
2021/05/06 06:09:09;;;;;;;2.45;1.00;;;;;;;12.88;43.17;98666.34;5049876;28;20059;-78
2021/05/06 06:11:36;;;;;;;2.63;1.40;;;;;;;13.10;41.98;98669.94;5064558;28;20343;-77
2021/05/06 06:14:06;;;;;;;4.93;1.80;;;;;;;12.76;43.23;98668.53;5064115;28;20131;-77
2021/05/06 06:16:35;;;;;;;6.95;3.08;;;;;;;13.10;42.14;98671.72;5063528;28;20068;-77
2021/05/06 06:19:02;;;;;;;2.92;1.58;;;;;;;12.95;43.33;98669.63;5069099;28;20059;-77
2021/05/06 06:23:59;;;;;;;2.67;1.23;;;;;;;13.91;39.65;98673.19;5064262;28;20052;-78
2021/05/06 06:26:26;;;;;;;3.20;1.33;;;;;;;14.68;38.33;98669.38;5065342;28;20102;-78
2021/05/06 06:28:56;;;;;;;3.92;1.20;;;;;;;14.48;38.76;98679.84;5060356;28;20037;-78
2021/05/06 06:31:46;;;;;;;5.45;1.30;;;;;;;14.46;37.74;98668.50;5065267;28;20059;-78
2021/05/06 06:34:11;;;;;;;5.47;1.00;;;;;;;13.26;40.77;98666.84;5063919;28;20044;-78
2021/05/06 06:36:44;;;;;;;4.00;1.15;;;;;;;13.84;40.25;98674.38;5066665;28;20151;-78
2021/05/06 06:39:12;;;;;;;2.08;0.98;;;;;;;14.28;37.79;98682.34;5068607;28;20135;-79
2021/05/06 06:41:39;;;;;;;5.25;0.98;;;;;;;14.97;37.58;98686.59;5063544;28;20040;-79
2021/05/06 06:44:06;;;;;;;2.53;1.15;;;;;;;16.17;35.62;98680.47;5064481;28;20040;-79
2021/05/06 06:46:32;;;;;;;4.53;1.10;;;;;;;16.63;33.67;98682.72;5063401;28;20083;-79
2021/05/06 06:49:00;;;;;;;2.75;0.90;;;;;;;16.35;33.48;98677.00;5064495;28;20128;-78
2021/05/06 06:51:27;;;;;;;4.38;1.15;;;;;;;18.55;32.67;98687.69;5065232;28;20037;-80
2021/05/06 06:53:54;;;;;;;2.17;1.00;;;;;;;19.65;28.45;98682.19;5067819;28;20059;-79
2021/05/06 06:56:20;;;;;;;2.20;1.08;;;;;;;19.57;29.74;98690.56;5047882;28;20045;-79
2021/05/06 06:58:51;;;;;;;2.53;0.95;;;;;;;21.03;27.54;98691.13;5071878;28;20067;-79
2021/05/06 07:01:18;;;;;;;3.78;0.90;;;;;;;20.36;27.68;98682.22;5068740;28;20494;-77
2021/05/06 07:03:44;;;;;;;4.15;0.70;;;;;;;21.07;27.23;98688.19;5049569;28;20052;-77
2021/05/06 07:06:12;;;;;;;3.25;0.90;;;;;;;20.70;26.65;98680.91;5063373;28;20044;-78
2021/05/06 07:08:42;;;;;;;2.05;0.80;;;;;;;21.10;26.04;98689.78;5061164;28;20037;-77
2021/05/06 07:11:09;;;;;;;2.13;0.93;;;;;;;20.54;26.76;98681.03;5062269;28;20135;-78
2021/05/06 07:13:35;;;;;;;3.30;1.05;;;;;;;18.23;29.39;98692.06;5056494;28;20040;-77
2021/05/06 07:16:08;;;;;;;1.77;1.10;;;;;;;17.41;30.36;98677.03;5072958;28;20056;-77
2021/05/06 07:19:12;;;;;;;5.38;1.45;;;;;;;18.47;29.54;98684.56;5059863;28;20412;-77
2021/05/06 07:21:39;;;;;;;2.97;1.08;;;;;;;18.42;28.96;98685.75;5084333;28;20044;-77
2021/05/06 07:24:06;;;;;;;3.28;1.00;;;;;;;19.15;28.36;98687.78;5066143;28;20933;-76
2021/05/06 07:26:35;;;;;;;3.17;1.30;;;;;;;20.28;26.92;98687.13;5061726;28;20068;-76
2021/05/06 07:29:04;;;;;;;3.63;1.30;;;;;;;20.32;25.88;98689.53;5052176;28;20059;-80
2021/05/06 07:31:33;;;;;;;2.25;1.10;;;;;;;20.43;26.62;98686.19;5059952;28;20036;-77
2021/05/06 07:34:02;;;;;;;2.95;1.33;;;;;;;19.61;26.35;98671.88;5063985;28;21083;-76
2021/05/06 07:36:31;;;;;;;4.53;1.25;;;;;;;19.90;26.50;98674.44;5056392;28;20075;-79
2021/05/06 07:39:01;;;;;;;3.65;1.10;;;;;;;19.72;26.76;98664.09;5061806;28;20044;-79
2021/05/06 07:41:31;;;;;;;3.33;0.90;;;;;;;20.30;26.03;98672.84;5061481;28;20064;-80
2021/05/06 07:44:00;;;;;;;2.05;0.70;;;;;;;21.66;24.62;98673.56;5066613;28;20472;-77
2021/05/06 07:46:30;;;;;;;3.40;1.30;;;;;;;22.46;23.25;98667.03;5060107;28;20075;-79
2021/05/06 07:48:59;;;;;;;5.32;1.25;;;;;;;22.23;23.37;98675.81;5046827;28;20052;-77
2021/05/06 07:51:29;;;;;;;5.45;1.60;;;;;;;23.07;23.08;98675.88;5060487;28;20041;-79
2021/05/06 07:54:05;;;;;;;2.53;0.98;;;;;;;23.26;22.61;98670.84;5069029;28;20044;-79
2021/05/06 07:56:37;;;;;;;3.08;0.90;;;;;;;24.47;20.12;98662.34;5067474;28;20052;-80
2021/05/06 07:59:06;;;;;;;5.57;1.13;;;;;;;24.65;20.24;98671.56;5057643;28;20060;-80
2021/05/06 08:01:33;;;;;;;6.30;0.88;;;;;;;28.55;16.59;98674.09;5067188;28;20139;-79
2021/05/06 08:04:02;;;;;;;3.45;1.10;;;;;;;25.96;17.21;98667.59;5047322;28;20053;-85
2021/05/06 08:06:29;;;;;;;4.15;0.93;;;;;;;25.66;17.13;98667.53;5044538;28;20045;-77
2021/05/06 08:08:56;;;;;;;3.47;0.90;;;;;;;26.47;17.63;98669.41;5066304;28;20507;-78
2021/05/06 08:11:22;;;;;;;4.13;1.02;;;;;;;24.19;19.19;98658.38;5065481;28;20047;-77
2021/05/06 08:13:49;;;;;;;4.22;0.82;;;;;;;24.01;18.94;98659.78;5040873;28;20128;-76
2021/05/06 08:16:16;;;;;;;4.25;0.93;;;;;;;22.97;19.61;98665.03;5012206;28;20057;-78
2021/05/06 08:18:42;;;;;;;3.55;1.10;;;;;;;24.46;19.16;98671.34;5011389;28;20198;-77
2021/05/06 08:21:09;;;;;;;2.00;0.90;;;;;;;25.37;17.24;98661.16;5042687;28;20052;-78
2021/05/06 08:23:36;;;;;;;1.00;0.70;;;;;;;24.42;17.67;98668.06;5005362;28;20068;-77
2021/05/06 08:26:03;;;;;;;2.25;0.88;;;;;;;24.68;17.47;98669.47;5027643;28;20464;-77
2021/05/06 08:28:50;;;;;;;2.35;0.70;;;;;;;25.62;15.99;98668.78;5019374;28;20081;-77
2021/05/06 08:31:16;;;;;;;2.90;1.00;;;;;;;25.30;17.52;98676.84;5008350;28;20531;-78
2021/05/06 08:33:43;;;;;;;2.58;0.95;;;;;;;25.93;16.88;98677.72;5023323;28;20106;-78
2021/05/06 08:36:10;;;;;;;2.65;1.00;;;;;;;28.22;15.00;98683.59;5040996;28;20044;-77
2021/05/06 08:38:36;;;;;;;2.10;0.75;;;;;;;26.80;15.72;98679.81;5037995;28;20147;-78
2021/05/06 08:41:04;;;;;;;1.92;0.93;;;;;;;24.22;17.20;98674.97;5021888;28;20051;-78
2021/05/06 08:43:34;;;;;;;3.55;0.70;;;;;;;24.82;16.74;98675.53;5023040;28;20053;-78
2021/05/06 08:46:01;;;;;;;3.80;0.80;;;;;;;26.42;16.09;98680.53;5005076;28;20044;-81
2021/05/06 08:48:30;;;;;;;1.60;0.70;;;;;;;27.17;14.94;98671.13;5058329;28;20049;-80
2021/05/06 08:50:58;;;;;;;3.50;0.80;;;;;;;26.93;15.77;98671.53;5057134;28;20059;-80
2021/05/06 08:53:25;;;;;;;5.78;1.05;;;;;;;27.52;15.49;98673.25;5066425;28;20471;-79
2021/05/06 08:55:54;;;;;;;3.55;1.40;;;;;;;28.90;13.82;98670.69;5057041;28;20044;-79
2021/05/06 08:58:21;;;;;;;2.83;0.88;;;;;;;29.95;13.30;98693.19;5049390;28;20059;-78
2021/05/06 09:00:47;;;;;;;2.70;1.38;;;;;;;29.16;15.13;98676.97;5047594;28;20052;-78
2021/05/06 09:03:14;;;;;;;2.58;1.00;;;;;;;28.53;14.50;98682.34;5059804;28;20522;-77
